createdAt,value
2017-03-05T00:00:00.787Z,0
2017-03-05T00:00:41.205Z,0
2017-03-05T00:01:21.648Z,0
2017-03-05T00:02:02.073Z,0
2017-03-05T00:02:42.519Z,0
2017-03-05T00:03:22.886Z,0
2017-03-05T00:04:03.321Z,0
2017-03-05T00:04:43.785Z,0
2017-03-05T00:05:24.178Z,0
2017-03-05T00:06:04.648Z,0
2017-03-05T00:06:45.051Z,0
2017-03-05T00:07:25.489Z,0
2017-03-05T00:08:05.875Z,0
2017-03-05T00:08:46.323Z,0
2017-03-05T00:09:26.932Z,0
2017-03-05T00:10:07.353Z,0
2017-03-05T00:10:47.756Z,0
2017-03-05T00:11:28.180Z,0
2017-03-05T00:12:08.654Z,0
2017-03-05T00:12:49.053Z,0
2017-03-05T00:13:29.452Z,0
2017-03-05T00:14:09.895Z,0
2017-03-05T00:14:50.250Z,0
2017-03-05T00:15:32.587Z,0
2017-03-05T00:16:12.697Z,0
2017-03-05T00:16:53.078Z,0
2017-03-05T00:17:33.770Z,0
2017-03-05T00:18:15.005Z,0
2017-03-05T00:18:55.425Z,0
2017-03-05T00:19:35.807Z,0
2017-03-05T00:20:16.194Z,0
2017-03-05T00:20:56.599Z,0
2017-03-05T00:21:37.019Z,0
2017-03-05T00:22:17.402Z,0
2017-03-05T00:22:58.411Z,0
2017-03-05T00:23:39.287Z,0
2017-03-05T00:24:19.684Z,0
2017-03-05T00:25:01.132Z,0
2017-03-05T00:25:41.621Z,0
2017-03-05T00:26:22.032Z,0
2017-03-05T00:27:03.548Z,0
2017-03-05T00:27:44.856Z,0
2017-03-05T00:28:25.245Z,0
2017-03-05T00:29:06.041Z,0
2017-03-05T00:29:47.157Z,0
2017-03-05T00:30:27.578Z,0
2017-03-05T00:31:08.773Z,0
2017-03-05T00:31:49.893Z,0
2017-03-05T00:32:30.325Z,0
2017-03-05T00:33:10.787Z,0
2017-03-05T00:33:51.152Z,0
2017-03-05T00:34:32.177Z,0
2017-03-05T00:35:12.589Z,0
2017-03-05T00:35:53.038Z,0
2017-03-05T00:36:34.851Z,0
2017-03-05T00:37:15.287Z,0
2017-03-05T00:37:55.719Z,0
2017-03-05T00:38:36.118Z,0
2017-03-05T00:39:16.635Z,0
2017-03-05T00:39:57.267Z,0
2017-03-05T00:40:37.680Z,0
2017-03-05T00:41:18.077Z,0
2017-03-05T00:41:58.482Z,0
2017-03-05T00:42:39.532Z,0
2017-03-05T00:43:19.939Z,0
2017-03-05T00:44:00.705Z,0
2017-03-05T00:44:41.182Z,0
2017-03-05T00:45:21.536Z,0
2017-03-05T00:46:02.026Z,0
2017-03-05T00:46:42.451Z,0
2017-03-05T00:47:23.595Z,0
2017-03-05T00:48:03.248Z,0
2017-03-05T00:48:43.584Z,0
2017-03-05T00:49:24.116Z,0
2017-03-05T00:50:04.514Z,0
2017-03-05T00:50:44.976Z,0
2017-03-05T00:51:25.379Z,0
2017-03-05T00:52:05.808Z,0
2017-03-05T00:52:46.186Z,0
2017-03-05T00:53:26.584Z,0
2017-03-05T00:54:06.969Z,0
2017-03-05T00:54:47.361Z,0
2017-03-05T00:55:28.175Z,0
2017-03-05T00:56:08.565Z,0
2017-03-05T00:56:49.765Z,0
2017-03-05T00:57:30.122Z,0
2017-03-05T00:58:10.550Z,0
2017-03-05T00:58:50.970Z,0
2017-03-05T00:59:31.419Z,0
2017-03-05T01:00:11.905Z,0
2017-03-05T01:00:52.399Z,0
2017-03-05T01:01:32.797Z,0
2017-03-05T01:02:13.246Z,0
2017-03-05T01:02:53.575Z,0
2017-03-05T01:03:33.985Z,0
2017-03-05T01:04:14.433Z,0
2017-03-05T01:04:55.831Z,0
2017-03-05T01:05:35.972Z,0
2017-03-05T01:06:16.360Z,0
2017-03-05T01:06:56.777Z,0
2017-03-05T01:07:37.186Z,0
2017-03-05T01:08:17.627Z,0
2017-03-05T01:08:58.100Z,0
2017-03-05T01:09:38.557Z,0
2017-03-05T01:10:18.923Z,0
2017-03-05T01:10:59.353Z,0
2017-03-05T01:11:40.427Z,0
2017-03-05T01:12:22.050Z,0
2017-03-05T01:13:02.464Z,0
2017-03-05T01:13:45.327Z,0
2017-03-05T01:14:24.868Z,0
2017-03-05T01:15:05.341Z,0
2017-03-05T01:15:46.343Z,0
2017-03-05T01:16:27.545Z,0
2017-03-05T01:17:07.932Z,0
2017-03-05T01:17:49.283Z,0
2017-03-05T01:18:29.669Z,0
2017-03-05T01:19:10.096Z,0
2017-03-05T01:19:50.472Z,0
2017-03-05T01:20:30.939Z,0
2017-03-05T01:21:11.313Z,0
2017-03-05T01:21:51.710Z,0
2017-03-05T01:22:32.640Z,0
2017-03-05T01:23:13.603Z,0
2017-03-05T01:23:53.525Z,0
2017-03-05T01:24:33.917Z,0
2017-03-05T01:25:15.342Z,0
2017-03-05T01:25:57.801Z,0
2017-03-05T01:26:38.124Z,0
2017-03-05T01:27:18.525Z,0
2017-03-05T01:27:58.915Z,0
2017-03-05T01:28:39.894Z,0
2017-03-05T01:29:22.532Z,0
2017-03-05T01:30:02.968Z,0
2017-03-05T01:30:43.302Z,0
2017-03-05T01:31:23.723Z,0
2017-03-05T01:32:04.597Z,0
2017-03-05T01:32:45.034Z,0
2017-03-05T01:33:26.609Z,0
2017-03-05T01:34:06.987Z,0
2017-03-05T01:34:47.364Z,0
2017-03-05T01:35:34.694Z,0
2017-03-05T01:36:15.111Z,0
2017-03-05T01:36:55.547Z,0
2017-03-05T01:37:37.864Z,0
2017-03-05T01:38:18.258Z,0
2017-03-05T01:38:58.646Z,0
2017-03-05T01:39:39.647Z,0
2017-03-05T01:40:20.620Z,0
2017-03-05T01:41:01.063Z,0
2017-03-05T01:41:41.481Z,0
2017-03-05T01:42:21.901Z,0
2017-03-05T01:43:02.776Z,0
2017-03-05T01:43:43.225Z,0
2017-03-05T01:44:23.894Z,0
2017-03-05T01:45:10.990Z,0
2017-03-05T01:45:51.370Z,0
2017-03-05T01:46:33.369Z,0
2017-03-05T01:47:13.712Z,0
2017-03-05T01:47:54.400Z,0
2017-03-05T01:48:34.837Z,0
2017-03-05T01:49:16.032Z,0
2017-03-05T01:49:56.462Z,0
2017-03-05T01:50:36.838Z,0
2017-03-05T01:51:18.599Z,0
2017-03-05T01:51:58.242Z,0
2017-03-05T01:52:38.717Z,0
2017-03-05T01:53:19.203Z,0
2017-03-05T01:54:00.310Z,0
2017-03-05T01:54:41.819Z,0
2017-03-05T01:55:21.392Z,0
2017-03-05T01:56:01.823Z,0
2017-03-05T01:56:43.150Z,0
2017-03-05T01:57:24.695Z,0
2017-03-05T01:58:05.131Z,0
2017-03-05T01:58:45.570Z,0
2017-03-05T01:59:26.131Z,0
2017-03-05T02:00:06.482Z,0
2017-03-05T02:00:46.899Z,0
2017-03-05T02:01:27.307Z,0
2017-03-05T02:02:07.710Z,0
2017-03-05T02:02:48.679Z,0
2017-03-05T02:03:29.553Z,0
2017-03-05T02:04:09.954Z,0
2017-03-05T02:04:50.338Z,0
2017-03-05T02:05:30.711Z,0
2017-03-05T02:06:11.125Z,0
2017-03-05T02:06:51.549Z,0
2017-03-05T02:07:31.916Z,0
2017-03-05T02:08:12.370Z,0
2017-03-05T02:08:52.799Z,0
2017-03-05T02:09:33.183Z,0
2017-03-05T02:10:13.654Z,0
2017-03-05T02:10:54.048Z,0
2017-03-05T02:11:34.465Z,0
2017-03-05T02:12:14.869Z,0
2017-03-05T02:12:55.386Z,0
2017-03-05T02:13:35.789Z,0
2017-03-05T02:14:16.178Z,0
2017-03-05T02:14:56.567Z,0
2017-03-05T02:15:36.967Z,0
2017-03-05T02:16:17.369Z,0
2017-03-05T02:16:57.784Z,0
2017-03-05T02:17:38.167Z,0
2017-03-05T02:18:18.578Z,0
2017-03-05T02:18:59.021Z,0
2017-03-05T02:19:39.398Z,0
2017-03-05T02:20:19.799Z,0
2017-03-05T02:21:00.228Z,0
2017-03-05T02:21:40.620Z,0
2017-03-05T02:22:21.040Z,0
2017-03-05T02:23:01.433Z,0
2017-03-05T02:23:41.879Z,0
2017-03-05T02:24:22.306Z,0
2017-03-05T02:25:02.721Z,0
2017-03-05T02:25:43.110Z,0
2017-03-05T02:26:23.535Z,0
2017-03-05T02:27:04.003Z,0
2017-03-05T02:27:44.338Z,0
2017-03-05T02:28:24.771Z,0
2017-03-05T02:29:05.148Z,0
2017-03-05T02:29:45.591Z,0
2017-03-05T02:30:25.945Z,0
2017-03-05T02:31:06.368Z,0
2017-03-05T02:31:46.832Z,0
2017-03-05T02:32:27.209Z,0
2017-03-05T02:33:07.681Z,0
2017-03-05T02:33:48.058Z,0
2017-03-05T02:34:28.442Z,0
2017-03-05T02:35:08.878Z,0
2017-03-05T02:35:49.345Z,0
2017-03-05T02:36:29.719Z,0
2017-03-05T02:37:10.159Z,0
2017-03-05T02:37:50.556Z,0
2017-03-05T02:38:30.927Z,0
2017-03-05T02:39:11.385Z,0
2017-03-05T02:39:51.726Z,0
2017-03-05T02:40:32.193Z,0
2017-03-05T02:41:12.636Z,0
2017-03-05T02:41:53.000Z,0
2017-03-05T02:42:33.425Z,0
2017-03-05T02:43:13.787Z,0
2017-03-05T02:43:54.244Z,0
2017-03-05T02:44:34.647Z,0
2017-03-05T02:45:15.035Z,0
2017-03-05T02:45:55.422Z,0
2017-03-05T02:46:35.877Z,0
2017-03-05T02:47:16.308Z,0
2017-03-05T02:47:56.693Z,0
2017-03-05T02:48:37.084Z,0
2017-03-05T02:49:17.588Z,0
2017-03-05T02:49:58.001Z,0
2017-03-05T02:50:38.431Z,0
2017-03-05T02:51:18.827Z,0
2017-03-05T02:51:59.220Z,0
2017-03-05T02:52:39.614Z,0
2017-03-05T02:53:20.040Z,0
2017-03-05T02:54:00.444Z,0
2017-03-05T02:54:40.846Z,0
2017-03-05T02:55:21.240Z,0
2017-03-05T02:56:01.639Z,0
2017-03-05T02:56:42.096Z,0
2017-03-05T02:57:22.424Z,0
2017-03-05T02:58:02.840Z,0
2017-03-05T02:58:43.269Z,0
2017-03-05T02:59:23.656Z,0
2017-03-05T03:00:04.145Z,0
2017-03-05T03:00:44.631Z,0
2017-03-05T03:01:25.016Z,0
2017-03-05T03:02:05.429Z,0
2017-03-05T03:02:45.832Z,0
2017-03-05T03:03:26.266Z,0
2017-03-05T03:04:06.612Z,0
2017-03-05T03:04:47.013Z,0
2017-03-05T03:05:27.404Z,0
2017-03-05T03:06:07.833Z,0
2017-03-05T03:06:48.209Z,0
2017-03-05T03:07:28.595Z,0
2017-03-05T03:08:09.065Z,0
2017-03-05T03:08:49.383Z,0
2017-03-05T03:09:29.834Z,0
2017-03-05T03:10:10.257Z,0
2017-03-05T03:10:50.713Z,0
2017-03-05T03:11:31.078Z,0
2017-03-05T03:12:11.479Z,0
2017-03-05T03:12:51.904Z,0
2017-03-05T03:13:32.270Z,0
2017-03-05T03:14:12.705Z,0
2017-03-05T03:14:53.108Z,0
2017-03-05T03:15:33.509Z,0
2017-03-05T03:16:13.865Z,0
2017-03-05T03:16:54.354Z,0
2017-03-05T03:17:34.748Z,0
2017-03-05T03:18:15.098Z,0
2017-03-05T03:18:55.502Z,0
2017-03-05T03:19:35.902Z,0
2017-03-05T03:20:16.306Z,0
2017-03-05T03:20:56.694Z,0
2017-03-05T03:21:37.129Z,0
2017-03-05T03:22:17.500Z,0
2017-03-05T03:22:57.995Z,0
2017-03-05T03:23:38.427Z,0
2017-03-05T03:24:18.834Z,0
2017-03-05T03:24:59.218Z,0
2017-03-05T03:25:39.665Z,0
2017-03-05T03:26:20.075Z,0
2017-03-05T03:27:00.502Z,0
2017-03-05T03:27:40.872Z,0
2017-03-05T03:28:21.323Z,0
2017-03-05T03:29:01.705Z,0
2017-03-05T03:29:42.109Z,0
2017-03-05T03:30:22.488Z,0
2017-03-05T03:31:02.950Z,0
2017-03-05T03:31:43.389Z,0
2017-03-05T03:32:23.770Z,0
2017-03-05T03:33:04.193Z,0
2017-03-05T03:33:44.628Z,0
2017-03-05T03:34:25.000Z,0
2017-03-05T03:35:05.423Z,0
2017-03-05T03:35:45.803Z,0
2017-03-05T03:36:26.201Z,0
2017-03-05T03:37:06.593Z,0
2017-03-05T03:37:47.034Z,0
2017-03-05T03:38:27.462Z,0
2017-03-05T03:39:08.146Z,0
2017-03-05T03:39:48.445Z,0
2017-03-05T03:40:28.839Z,0
2017-03-05T03:41:09.184Z,0
2017-03-05T03:41:49.635Z,0
2017-03-05T03:42:30.033Z,0
2017-03-05T03:43:10.482Z,0
2017-03-05T03:43:50.860Z,0
2017-03-05T03:44:31.309Z,0
2017-03-05T03:45:11.745Z,0
2017-03-05T03:45:52.189Z,0
2017-03-05T03:46:32.599Z,0
2017-03-05T03:47:13.016Z,0
2017-03-05T03:47:53.444Z,0
2017-03-05T03:48:33.875Z,0
2017-03-05T03:49:14.330Z,0
2017-03-05T03:49:54.705Z,0
2017-03-05T03:50:35.181Z,0
2017-03-05T03:51:15.581Z,0
2017-03-05T03:51:56.014Z,0
2017-03-05T03:52:36.397Z,0
2017-03-05T03:53:16.820Z,0
2017-03-05T03:53:57.219Z,0
2017-03-05T03:54:37.631Z,0
2017-03-05T03:55:18.035Z,0
2017-03-05T03:55:58.458Z,0
2017-03-05T03:56:38.889Z,0
2017-03-05T03:57:19.308Z,0
2017-03-05T03:57:59.716Z,0
2017-03-05T03:58:40.143Z,0
2017-03-05T03:59:20.456Z,0
2017-03-05T04:00:00.961Z,0
2017-03-05T04:00:41.311Z,0
2017-03-05T04:01:21.727Z,0
2017-03-05T04:02:02.132Z,0
2017-03-05T04:02:42.575Z,0
2017-03-05T04:03:22.937Z,0
2017-03-05T04:04:03.295Z,0
2017-03-05T04:04:43.712Z,0
2017-03-05T04:05:24.202Z,0
2017-03-05T04:06:04.571Z,0
2017-03-05T04:06:44.941Z,0
2017-03-05T04:07:25.405Z,0
2017-03-05T04:08:05.842Z,0
2017-03-05T04:08:46.176Z,0
2017-03-05T04:09:26.605Z,0
2017-03-05T04:10:06.991Z,0
2017-03-05T04:10:47.368Z,0
2017-03-05T04:11:27.772Z,0
2017-03-05T04:12:08.211Z,0
2017-03-05T04:12:48.528Z,0
2017-03-05T04:13:28.962Z,0
2017-03-05T04:14:09.360Z,0
2017-03-05T04:14:49.807Z,0
2017-03-05T04:15:30.203Z,0
2017-03-05T04:16:10.599Z,0
2017-03-05T04:16:50.953Z,0
2017-03-05T04:17:31.439Z,0
2017-03-05T04:18:11.828Z,0
2017-03-05T04:18:52.226Z,0
2017-03-05T04:19:32.578Z,0
2017-03-05T04:20:13.035Z,0
2017-03-05T04:20:53.441Z,0
2017-03-05T04:21:33.854Z,0
2017-03-05T04:22:14.261Z,0
2017-03-05T04:22:54.639Z,0
2017-03-05T04:23:35.032Z,0
2017-03-05T04:24:15.416Z,0
2017-03-05T04:24:55.892Z,0
2017-03-05T04:25:36.271Z,0
2017-03-05T04:26:16.699Z,0
2017-03-05T04:26:57.164Z,0
2017-03-05T04:27:37.507Z,0
2017-03-05T04:28:17.895Z,0
2017-03-05T04:28:58.295Z,0
2017-03-05T04:29:38.738Z,0
2017-03-05T04:30:19.130Z,0
2017-03-05T04:30:59.494Z,0
2017-03-05T04:31:39.908Z,0
2017-03-05T04:32:20.322Z,0
2017-03-05T04:33:00.699Z,0
2017-03-05T04:33:41.194Z,0
2017-03-05T04:34:21.589Z,0
2017-03-05T04:35:02.009Z,0
2017-03-05T04:35:42.400Z,0
2017-03-05T04:36:22.818Z,0
2017-03-05T04:37:03.216Z,0
2017-03-05T04:37:43.666Z,0
2017-03-05T04:38:24.072Z,0
2017-03-05T04:39:04.515Z,0
2017-03-05T04:39:44.896Z,0
2017-03-05T04:40:25.365Z,0
2017-03-05T04:41:05.787Z,0
2017-03-05T04:41:46.198Z,0
2017-03-05T04:42:26.583Z,0
2017-03-05T04:43:06.952Z,0
2017-03-05T04:43:47.362Z,0
2017-03-05T04:44:27.808Z,0
2017-03-05T04:45:08.198Z,0
2017-03-05T04:45:48.573Z,0
2017-03-05T04:46:29.035Z,0
2017-03-05T04:47:09.401Z,0
2017-03-05T04:47:49.818Z,0
2017-03-05T04:48:30.177Z,0
2017-03-05T04:49:10.581Z,0
2017-03-05T04:49:51.034Z,0
2017-03-05T04:50:31.446Z,0
2017-03-05T04:51:11.923Z,0
2017-03-05T04:51:52.303Z,0
2017-03-05T04:52:32.687Z,0
2017-03-05T04:53:13.113Z,0
2017-03-05T04:53:53.583Z,0
2017-03-05T04:54:33.952Z,0
2017-03-05T04:55:14.403Z,0
2017-03-05T04:55:54.830Z,0
2017-03-05T04:56:35.275Z,0
2017-03-05T04:57:15.748Z,0
2017-03-05T04:57:56.182Z,0
2017-03-05T04:58:36.617Z,0
2017-03-05T04:59:16.987Z,0
2017-03-05T04:59:57.399Z,0
2017-03-05T05:00:37.884Z,0
2017-03-05T05:01:18.286Z,0
2017-03-05T05:01:58.735Z,0
2017-03-05T05:02:39.111Z,0
2017-03-05T05:03:19.668Z,0
2017-03-05T05:04:00.066Z,0
2017-03-05T05:04:40.475Z,0
2017-03-05T05:05:20.966Z,0
2017-03-05T05:06:01.335Z,0
2017-03-05T05:06:41.794Z,0
2017-03-05T05:07:22.242Z,0
2017-03-05T05:08:02.697Z,0
2017-03-05T05:08:43.098Z,0
2017-03-05T05:09:23.511Z,0
2017-03-05T05:10:03.862Z,0
2017-03-05T05:10:44.260Z,0
2017-03-05T05:11:24.780Z,0
2017-03-05T05:12:05.165Z,0
2017-03-05T05:12:45.595Z,0
2017-03-05T05:13:25.939Z,0
2017-03-05T05:14:06.388Z,0
2017-03-05T05:14:46.797Z,0
2017-03-05T05:15:27.201Z,0
2017-03-05T05:16:07.574Z,0
2017-03-05T05:16:48.003Z,0
2017-03-05T05:17:28.391Z,0
2017-03-05T05:18:08.877Z,0
2017-03-05T05:18:49.242Z,0
2017-03-05T05:19:29.683Z,0
2017-03-05T05:20:10.098Z,0
2017-03-05T05:20:50.486Z,0
2017-03-05T05:21:30.851Z,0
2017-03-05T05:22:11.297Z,0
2017-03-05T05:22:51.656Z,0
2017-03-05T05:23:32.092Z,0
2017-03-05T05:24:12.492Z,0
2017-03-05T05:24:52.921Z,0
2017-03-05T05:25:33.315Z,0
2017-03-05T05:26:13.736Z,0
2017-03-05T05:26:54.195Z,0
2017-03-05T05:27:34.541Z,0
2017-03-05T05:28:14.968Z,0
2017-03-05T05:28:55.366Z,0
2017-03-05T05:29:35.717Z,0
2017-03-05T05:30:16.172Z,0
2017-03-05T05:30:56.642Z,0
2017-03-05T05:31:37.009Z,0
2017-03-05T05:32:17.441Z,0
2017-03-05T05:32:57.880Z,0
2017-03-05T05:33:38.232Z,0
2017-03-05T05:34:18.661Z,0
2017-03-05T05:34:59.064Z,0
2017-03-05T05:35:39.447Z,0
2017-03-05T05:36:19.867Z,0
2017-03-05T05:37:00.230Z,0
2017-03-05T05:37:40.654Z,0
2017-03-05T05:38:21.113Z,0
2017-03-05T05:39:01.459Z,0
2017-03-05T05:39:41.900Z,0
2017-03-05T05:40:22.360Z,0
2017-03-05T05:41:02.745Z,0
2017-03-05T05:41:43.173Z,0
2017-03-05T05:42:23.588Z,0
2017-03-05T05:43:03.956Z,0
2017-03-05T05:43:44.330Z,0
2017-03-05T05:44:24.762Z,0
2017-03-05T05:45:05.154Z,0
2017-03-05T05:45:45.605Z,0
2017-03-05T05:46:26.027Z,0
2017-03-05T05:47:06.378Z,0
2017-03-05T05:47:46.874Z,0
2017-03-05T05:48:27.267Z,0
2017-03-05T05:49:07.671Z,0
2017-03-05T05:49:48.116Z,0
2017-03-05T05:50:28.445Z,0
2017-03-05T05:51:08.871Z,0
2017-03-05T05:51:49.257Z,0
2017-03-05T05:52:29.920Z,0
2017-03-05T05:53:10.374Z,0
2017-03-05T05:53:50.798Z,0
2017-03-05T05:54:31.228Z,0
2017-03-05T05:55:11.615Z,5
2017-03-05T05:55:52.118Z,5
2017-03-05T05:56:32.488Z,5
2017-03-05T05:57:12.895Z,5
2017-03-05T05:57:53.306Z,5
2017-03-05T05:58:33.712Z,5
2017-03-05T05:59:14.294Z,5
2017-03-05T05:59:54.655Z,5
2017-03-05T06:00:35.073Z,5
2017-03-05T06:01:15.490Z,5
2017-03-05T06:01:55.884Z,5
2017-03-05T06:02:36.277Z,5
2017-03-05T06:03:16.754Z,5
2017-03-05T06:03:57.122Z,5
2017-03-05T06:04:37.550Z,10
2017-03-05T06:05:17.960Z,10
2017-03-05T06:05:58.349Z,10
2017-03-05T06:06:38.796Z,10
2017-03-05T06:07:19.156Z,10
2017-03-05T06:07:59.612Z,15
2017-03-05T06:08:40.017Z,15
2017-03-05T06:09:20.401Z,15
2017-03-05T06:10:00.823Z,15
2017-03-05T06:10:41.286Z,15
2017-03-05T06:11:21.653Z,15
2017-03-05T06:12:02.087Z,15
2017-03-05T06:12:42.463Z,10
2017-03-05T06:13:22.879Z,10
2017-03-05T06:14:03.329Z,15
2017-03-05T06:14:43.766Z,15
2017-03-05T06:15:24.142Z,15
2017-03-05T06:16:04.486Z,15
2017-03-05T06:16:44.923Z,15
2017-03-05T06:17:25.332Z,20
2017-03-05T06:18:05.704Z,20
2017-03-05T06:18:46.107Z,20
2017-03-05T06:19:26.532Z,20
2017-03-05T06:20:06.911Z,25
2017-03-05T06:20:47.330Z,25
2017-03-05T06:21:27.762Z,25
2017-03-05T06:22:08.186Z,30
2017-03-05T06:22:48.581Z,30
2017-03-05T06:23:29.027Z,35
2017-03-05T06:24:09.400Z,35
2017-03-05T06:24:49.799Z,40
2017-03-05T06:25:30.260Z,40
2017-03-05T06:26:10.642Z,45
2017-03-05T06:26:51.051Z,50
2017-03-05T06:27:31.688Z,50
2017-03-05T06:28:12.212Z,55
2017-03-05T06:28:52.578Z,55
2017-03-05T06:29:32.977Z,55
2017-03-05T06:30:13.362Z,60
2017-03-05T06:30:53.742Z,60
2017-03-05T06:31:34.178Z,60
2017-03-05T06:32:14.600Z,65
2017-03-05T06:32:54.990Z,65
2017-03-05T06:33:35.395Z,65
2017-03-05T06:34:15.809Z,65
2017-03-05T06:34:56.194Z,60
2017-03-05T06:35:36.620Z,60
2017-03-05T06:36:17.020Z,60
2017-03-05T06:36:57.383Z,60
2017-03-05T06:37:37.808Z,65
2017-03-05T06:38:18.183Z,70
2017-03-05T06:38:58.673Z,75
2017-03-05T06:39:39.058Z,85
2017-03-05T06:40:19.389Z,85
2017-03-05T06:40:59.826Z,85
2017-03-05T06:41:40.246Z,80
2017-03-05T06:42:20.618Z,85
2017-03-05T06:43:01.043Z,85
2017-03-05T06:43:41.448Z,90
2017-03-05T06:44:21.886Z,95
2017-03-05T06:45:02.347Z,100
2017-03-05T06:45:42.702Z,100
2017-03-05T06:46:23.110Z,100
2017-03-05T06:47:03.509Z,95
2017-03-05T06:47:43.893Z,90
2017-03-05T06:48:24.276Z,85
2017-03-05T06:49:04.756Z,90
2017-03-05T06:49:45.148Z,95
2017-03-05T06:50:25.521Z,105
2017-03-05T06:51:05.937Z,110
2017-03-05T06:51:46.327Z,110
2017-03-05T06:52:26.705Z,110
2017-03-05T06:53:07.116Z,110
2017-03-05T06:53:47.562Z,115
2017-03-05T06:54:27.942Z,125
2017-03-05T06:55:08.330Z,130
2017-03-05T06:55:48.771Z,130
2017-03-05T06:56:29.162Z,125
2017-03-05T06:57:09.559Z,110
2017-03-05T06:57:49.965Z,105
2017-03-05T06:58:30.351Z,105
2017-03-05T06:59:10.758Z,115
2017-03-05T06:59:51.167Z,135
2017-03-05T07:00:31.714Z,150
2017-03-05T07:01:11.999Z,150
2017-03-05T07:01:52.441Z,140
2017-03-05T07:02:32.871Z,120
2017-03-05T07:03:13.269Z,105
2017-03-05T07:03:53.666Z,100
2017-03-05T07:04:34.041Z,105
2017-03-05T07:05:14.417Z,110
2017-03-05T07:05:54.849Z,110
2017-03-05T07:06:35.276Z,110
2017-03-05T07:07:15.696Z,115
2017-03-05T07:07:56.098Z,105
2017-03-05T07:08:36.507Z,105
2017-03-05T07:09:16.941Z,110
2017-03-05T07:09:57.313Z,105
2017-03-05T07:10:37.754Z,105
2017-03-05T07:11:18.148Z,120
2017-03-05T07:11:58.600Z,130
2017-03-05T07:12:39.007Z,130
2017-03-05T07:13:19.395Z,150
2017-03-05T07:13:59.809Z,170
2017-03-05T07:14:40.233Z,170
2017-03-05T07:15:20.619Z,165
2017-03-05T07:16:01.073Z,160
2017-03-05T07:16:41.485Z,175
2017-03-05T07:17:21.869Z,190
2017-03-05T07:18:02.312Z,190
2017-03-05T07:18:42.692Z,185
2017-03-05T07:19:23.129Z,185
2017-03-05T07:20:03.509Z,190
2017-03-05T07:20:43.916Z,190
2017-03-05T07:21:24.351Z,190
2017-03-05T07:22:04.713Z,175
2017-03-05T07:22:45.124Z,165
2017-03-05T07:23:25.495Z,155
2017-03-05T07:24:05.939Z,145
2017-03-05T07:24:46.338Z,140
2017-03-05T07:25:26.751Z,145
2017-03-05T07:26:07.119Z,155
2017-03-05T07:26:47.520Z,170
2017-03-05T07:27:27.993Z,190
2017-03-05T07:28:08.349Z,190
2017-03-05T07:28:48.727Z,180
2017-03-05T07:29:29.159Z,165
2017-03-05T07:30:09.564Z,150
2017-03-05T07:30:49.996Z,130
2017-03-05T07:31:30.389Z,135
2017-03-05T07:32:10.762Z,155
2017-03-05T07:32:51.155Z,160
2017-03-05T07:33:31.591Z,155
2017-03-05T07:34:12.004Z,145
2017-03-05T07:34:52.402Z,145
2017-03-05T07:35:32.805Z,145
2017-03-05T07:36:13.211Z,140
2017-03-05T07:36:53.627Z,125
2017-03-05T07:37:34.186Z,115
2017-03-05T07:38:14.595Z,115
2017-03-05T07:38:55.016Z,125
2017-03-05T07:39:35.383Z,125
2017-03-05T07:40:15.841Z,125
2017-03-05T07:40:56.267Z,140
2017-03-05T07:41:36.669Z,145
2017-03-05T07:42:17.075Z,140
2017-03-05T07:42:57.538Z,135
2017-03-05T07:43:37.950Z,135
2017-03-05T07:44:18.310Z,145
2017-03-05T07:44:58.752Z,160
2017-03-05T07:45:39.200Z,185
2017-03-05T07:46:19.559Z,195
2017-03-05T07:46:59.938Z,180
2017-03-05T07:47:40.366Z,170
2017-03-05T07:48:20.789Z,165
2017-03-05T07:49:01.217Z,170
2017-03-05T07:49:41.611Z,170
2017-03-05T07:50:21.983Z,175
2017-03-05T07:51:02.452Z,185
2017-03-05T07:51:42.848Z,190
2017-03-05T07:52:23.246Z,190
2017-03-05T07:53:03.652Z,180
2017-03-05T07:53:44.068Z,160
2017-03-05T07:54:24.443Z,155
2017-03-05T07:55:04.959Z,175
2017-03-05T07:55:45.341Z,205
2017-03-05T07:56:25.795Z,215
2017-03-05T07:57:06.191Z,210
2017-03-05T07:57:46.659Z,185
2017-03-05T07:58:27.024Z,190
2017-03-05T07:59:07.444Z,210
2017-03-05T07:59:47.878Z,250
2017-03-05T08:00:28.308Z,285
2017-03-05T08:01:08.757Z,295
2017-03-05T08:01:49.139Z,300
2017-03-05T08:02:29.515Z,290
2017-03-05T08:03:09.975Z,270
2017-03-05T08:03:50.386Z,260
2017-03-05T08:04:30.809Z,275
2017-03-05T08:05:11.221Z,295
2017-03-05T08:05:51.611Z,325
2017-03-05T08:06:32.907Z,365
2017-03-05T08:07:13.305Z,385
2017-03-05T08:07:53.758Z,390
2017-03-05T08:08:36.879Z,375
2017-03-05T08:09:17.238Z,365
2017-03-05T08:09:57.618Z,370
2017-03-05T08:10:38.209Z,415
2017-03-05T08:11:18.610Z,455
2017-03-05T08:11:59.001Z,455
2017-03-05T08:12:39.403Z,435
2017-03-05T08:13:19.877Z,500
2017-03-05T08:14:00.319Z,365
2017-03-05T08:14:40.738Z,280
2017-03-05T08:15:21.206Z,355
2017-03-05T08:16:01.655Z,400
2017-03-05T08:16:42.187Z,385
2017-03-05T08:17:22.610Z,385
2017-03-05T08:18:02.998Z,280
2017-03-05T08:18:43.449Z,385
2017-03-05T08:19:23.860Z,395
2017-03-05T08:20:04.300Z,375
2017-03-05T08:20:44.662Z,310
2017-03-05T08:21:25.077Z,305
2017-03-05T08:22:05.699Z,345
2017-03-05T08:22:46.009Z,370
2017-03-05T08:23:26.396Z,310
2017-03-05T08:24:06.843Z,235
2017-03-05T08:24:47.317Z,395
2017-03-05T08:25:27.694Z,395
2017-03-05T08:26:08.101Z,410
2017-03-05T08:26:48.603Z,415
2017-03-05T08:27:29.039Z,415
2017-03-05T08:28:09.498Z,390
2017-03-05T08:28:49.845Z,425
2017-03-05T08:29:30.236Z,320
2017-03-05T08:30:10.682Z,425
2017-03-05T08:30:51.318Z,430
2017-03-05T08:31:32.474Z,265
2017-03-05T08:32:12.860Z,460
2017-03-05T08:32:53.326Z,520
2017-03-05T08:33:33.725Z,550
2017-03-05T08:34:14.137Z,530
2017-03-05T08:34:54.531Z,330
2017-03-05T08:35:34.968Z,505
2017-03-05T08:36:15.429Z,555
2017-03-05T08:36:55.826Z,530
2017-03-05T08:37:36.240Z,405
2017-03-05T08:38:16.654Z,490
2017-03-05T08:38:57.112Z,425
2017-03-05T08:39:37.497Z,540
2017-03-05T08:40:17.907Z,580
2017-03-05T08:40:58.313Z,600
2017-03-05T08:41:38.679Z,465
2017-03-05T08:42:19.220Z,610
2017-03-05T08:42:59.545Z,785
2017-03-05T08:43:39.927Z,810
2017-03-05T08:44:20.381Z,615
2017-03-05T08:45:01.730Z,775
2017-03-05T08:45:42.422Z,565
2017-03-05T08:46:22.776Z,490
2017-03-05T08:47:03.197Z,415
2017-03-05T08:47:43.650Z,495
2017-03-05T08:48:24.046Z,555
2017-03-05T08:49:04.497Z,715
2017-03-05T08:49:44.912Z,565
2017-03-05T08:50:25.321Z,645
2017-03-05T08:51:05.696Z,515
2017-03-05T08:51:46.181Z,755
2017-03-05T08:52:26.557Z,645
2017-03-05T08:53:06.999Z,570
2017-03-05T08:53:47.566Z,505
2017-03-05T08:54:28.114Z,505
2017-03-05T08:55:08.975Z,620
2017-03-05T08:55:49.322Z,670
2017-03-05T08:56:29.864Z,760
2017-03-05T08:57:10.282Z,730
2017-03-05T08:57:50.679Z,600
2017-03-05T08:58:31.087Z,590
2017-03-05T08:59:11.544Z,525
2017-03-05T08:59:51.980Z,560
2017-03-05T09:00:32.585Z,600
2017-03-05T09:01:13.176Z,965
2017-03-05T09:01:53.623Z,745
2017-03-05T09:02:34.012Z,750
2017-03-05T09:03:14.478Z,815
2017-03-05T09:03:54.891Z,860
2017-03-05T09:04:36.055Z,745
2017-03-05T09:05:16.695Z,595
2017-03-05T09:05:57.195Z,600
2017-03-05T09:06:37.652Z,675
2017-03-05T09:07:18.541Z,685
2017-03-05T09:07:59.445Z,675
2017-03-05T09:08:39.905Z,625
2017-03-05T09:09:20.615Z,595
2017-03-05T09:10:01.113Z,470
2017-03-05T09:10:41.497Z,450
2017-03-05T09:11:22.379Z,480
2017-03-05T09:12:03.101Z,465
2017-03-05T09:12:44.885Z,770
2017-03-05T09:13:25.284Z,440
2017-03-05T09:14:05.758Z,450
2017-03-05T09:14:46.256Z,640
2017-03-05T09:15:28.976Z,780
2017-03-05T09:16:08.761Z,705
2017-03-05T09:16:49.285Z,770
2017-03-05T09:17:29.755Z,620
2017-03-05T09:18:10.170Z,525
2017-03-05T09:18:50.871Z,575
2017-03-05T09:19:31.325Z,640
2017-03-05T09:20:11.708Z,680
2017-03-05T09:20:52.112Z,715
2017-03-05T09:21:37.062Z,780
2017-03-05T09:22:18.433Z,825
2017-03-05T09:22:58.900Z,930
2017-03-05T09:23:39.313Z,765
2017-03-05T09:24:19.776Z,800
2017-03-05T09:25:01.831Z,905
2017-03-05T09:25:42.245Z,935
2017-03-05T09:26:22.669Z,975
2017-03-05T09:27:03.115Z,1170
2017-03-05T09:27:44.048Z,1050
2017-03-05T09:28:25.138Z,880
2017-03-05T09:29:06.233Z,750
2017-03-05T09:29:46.354Z,670
2017-03-05T09:30:26.533Z,755
2017-03-05T09:31:07.932Z,740
2017-03-05T09:31:49.655Z,785
2017-03-05T09:32:29.483Z,840
2017-03-05T09:33:09.985Z,840
2017-03-05T09:33:50.397Z,805
2017-03-05T09:34:30.798Z,495
2017-03-05T09:35:11.249Z,785
2017-03-05T09:35:51.681Z,810
2017-03-05T09:36:32.115Z,935
2017-03-05T09:37:13.056Z,1110
2017-03-05T09:37:53.120Z,1160
2017-03-05T09:38:33.547Z,1100
2017-03-05T09:39:14.002Z,1215
2017-03-05T09:39:54.388Z,1300
2017-03-05T09:40:34.817Z,1145
2017-03-05T09:41:15.202Z,1175
2017-03-05T09:41:55.583Z,930
2017-03-05T09:42:36.032Z,810
2017-03-05T09:43:16.481Z,880
2017-03-05T09:43:56.938Z,1105